sensor_id;sensor_type;location;lat;lon;timestamp;temperature;humidity
1536;DHT22;761;50.074;8.228;2023-03-14T00:01:11;11.00;1.00
1536;DHT22;761;50.074;8.228;2023-03-14T00:03:40;11.00;1.00
1536;DHT22;761;50.074;8.228;2023-03-14T00:06:09;11.00;1.00
1536;DHT22;761;50.074;8.228;2023-03-14T00:08:38;11.00;1.00
1536;DHT22;761;50.074;8.228;2023-03-14T00:11:07;11.00;1.00
1536;DHT22;761;50.074;8.228;2023-03-14T00:13:35;10.90;1.00
1536;DHT22;761;50.074;8.228;2023-03-14T00:16:05;10.90;1.00
1536;DHT22;761;50.074;8.228;2023-03-14T00:18:35;10.80;1.00
1536;DHT22;761;50.074;8.228;2023-03-14T00:21:05;10.80;1.00
1536;DHT22;761;50.074;8.228;2023-03-14T00:23:35;10.80;1.00
1536;DHT22;761;50.074;8.228;2023-03-14T00:26:05;10.60;1.00
1536;DHT22;761;50.074;8.228;2023-03-14T00:28:34;10.60;1.00
1536;DHT22;761;50.074;8.228;2023-03-14T00:31:03;10.60;1.00
1536;DHT22;761;50.074;8.228;2023-03-14T00:33:34;10.70;1.00
1536;DHT22;761;50.074;8.228;2023-03-14T00:36:06;10.70;1.00
1536;DHT22;761;50.074;8.228;2023-03-14T00:38:37;10.80;1.00
1536;DHT22;761;50.074;8.228;2023-03-14T00:41:07;10.80;1.00
1536;DHT22;761;50.074;8.228;2023-03-14T00:43:35;10.90;1.00
1536;DHT22;761;50.074;8.228;2023-03-14T00:46:04;10.90;1.00
1536;DHT22;761;50.074;8.228;2023-03-14T00:48:32;11.00;1.00
1536;DHT22;761;50.074;8.228;2023-03-14T00:51:02;11.00;1.00
1536;DHT22;761;50.074;8.228;2023-03-14T00:53:31;11.00;1.00
1536;DHT22;761;50.074;8.228;2023-03-14T00:56:02;10.90;1.00
1536;DHT22;761;50.074;8.228;2023-03-14T00:58:30;10.80;1.00
1536;DHT22;761;50.074;8.228;2023-03-14T01:00:58;10.80;1.00
1536;DHT22;761;50.074;8.228;2023-03-14T01:03:27;10.80;1.00
1536;DHT22;761;50.074;8.228;2023-03-14T01:06:08;10.80;1.00
1536;DHT22;761;50.074;8.228;2023-03-14T01:08:36;10.60;1.00
1536;DHT22;761;50.074;8.228;2023-03-14T01:11:06;10.60;1.00
1536;DHT22;761;50.074;8.228;2023-03-14T01:13:35;10.60;1.00
1536;DHT22;761;50.074;8.228;2023-03-14T01:16:05;10.60;1.00
1536;DHT22;761;50.074;8.228;2023-03-14T01:18:37;10.70;1.00
1536;DHT22;761;50.074;8.228;2023-03-14T01:21:12;10.70;1.00
1536;DHT22;761;50.074;8.228;2023-03-14T01:23:41;10.60;1.00
1536;DHT22;761;50.074;8.228;2023-03-14T01:26:10;10.60;1.00
1536;DHT22;761;50.074;8.228;2023-03-14T01:28:41;10.60;1.00
1536;DHT22;761;50.074;8.228;2023-03-14T01:31:12;10.60;1.00
1536;DHT22;761;50.074;8.228;2023-03-14T01:33:41;10.60;1.00
1536;DHT22;761;50.074;8.228;2023-03-14T01:36:11;10.60;1.00
1536;DHT22;761;50.074;8.228;2023-03-14T01:38:41;10.60;1.00
1536;DHT22;761;50.074;8.228;2023-03-14T01:41:14;10.60;1.00
1536;DHT22;761;50.074;8.228;2023-03-14T01:43:44;10.60;1.00
1536;DHT22;761;50.074;8.228;2023-03-14T01:46:28;10.60;1.00
1536;DHT22;761;50.074;8.228;2023-03-14T01:49:02;10.60;1.00
1536;DHT22;761;50.074;8.228;2023-03-14T01:51:38;10.60;1.00
1536;DHT22;761;50.074;8.228;2023-03-14T01:54:14;10.60;1.00
1536;DHT22;761;50.074;8.228;2023-03-14T01:56:46;10.60;1.00
1536;DHT22;761;50.074;8.228;2023-03-14T01:59:16;10.50;1.00
1536;DHT22;761;50.074;8.228;2023-03-14T02:01:47;10.60;1.00
1536;DHT22;761;50.074;8.228;2023-03-14T02:04:18;10.50;1.00
1536;DHT22;761;50.074;8.228;2023-03-14T02:06:51;10.50;1.00
1536;DHT22;761;50.074;8.228;2023-03-14T02:09:24;10.60;1.00
1536;DHT22;761;50.074;8.228;2023-03-14T02:11:53;10.50;1.00
1536;DHT22;761;50.074;8.228;2023-03-14T02:14:53;10.50;1.00
1536;DHT22;761;50.074;8.228;2023-03-14T02:17:30;10.50;1.00
1536;DHT22;761;50.074;8.228;2023-03-14T02:20:30;10.50;1.00
1536;DHT22;761;50.074;8.228;2023-03-14T02:23:02;10.50;1.00
1536;DHT22;761;50.074;8.228;2023-03-14T02:25:38;9.20;1.00
1536;DHT22;761;50.074;8.228;2023-03-14T02:28:09;10.50;1.00
1536;DHT22;761;50.074;8.228;2023-03-14T02:30:38;10.50;1.00
1536;DHT22;761;50.074;8.228;2023-03-14T02:33:08;10.50;1.00
1536;DHT22;761;50.074;8.228;2023-03-14T02:35:45;10.50;1.00
1536;DHT22;761;50.074;8.228;2023-03-14T02:38:18;10.50;1.00
1536;DHT22;761;50.074;8.228;2023-03-14T02:40:48;10.60;1.00
1536;DHT22;761;50.074;8.228;2023-03-14T02:43:19;10.60;1.00
1536;DHT22;761;50.074;8.228;2023-03-14T02:45:54;10.60;1.00
1536;DHT22;761;50.074;8.228;2023-03-14T02:48:25;10.60;1.00
1536;DHT22;761;50.074;8.228;2023-03-14T02:50:56;10.70;1.00
1536;DHT22;761;50.074;8.228;2023-03-14T02:53:28;10.70;1.00
1536;DHT22;761;50.074;8.228;2023-03-14T02:56:01;10.60;1.00
1536;DHT22;761;50.074;8.228;2023-03-14T02:58:33;10.70;1.00
1536;DHT22;761;50.074;8.228;2023-03-14T03:01:13;10.80;1.00
1536;DHT22;761;50.074;8.228;2023-03-14T03:03:43;10.60;1.00
1536;DHT22;761;50.074;8.228;2023-03-14T03:08:42;10.70;1.00
1536;DHT22;761;50.074;8.228;2023-03-14T03:11:10;10.70;1.00
1536;DHT22;761;50.074;8.228;2023-03-14T03:13:42;10.80;1.00
1536;DHT22;761;50.074;8.228;2023-03-14T03:16:13;10.60;1.00
1536;DHT22;761;50.074;8.228;2023-03-14T03:18:42;10.60;1.00
1536;DHT22;761;50.074;8.228;2023-03-14T03:21:10;10.60;1.00
1536;DHT22;761;50.074;8.228;2023-03-14T03:23:39;10.60;1.00
1536;DHT22;761;50.074;8.228;2023-03-14T03:26:09;10.50;1.00
1536;DHT22;761;50.074;8.228;2023-03-14T03:28:37;10.50;1.00
1536;DHT22;761;50.074;8.228;2023-03-14T03:31:11;10.40;1.00
1536;DHT22;761;50.074;8.228;2023-03-14T03:33:40;10.40;1.00
1536;DHT22;761;50.074;8.228;2023-03-14T03:36:09;10.30;1.00
1536;DHT22;761;50.074;8.228;2023-03-14T03:38:39;10.30;1.00
1536;DHT22;761;50.074;8.228;2023-03-14T03:41:10;10.10;1.00
1536;DHT22;761;50.074;8.228;2023-03-14T03:43:38;10.30;1.00
1536;DHT22;761;50.074;8.228;2023-03-14T03:46:10;10.30;1.00
1536;DHT22;761;50.074;8.228;2023-03-14T03:48:38;10.70;1.00
1536;DHT22;761;50.074;8.228;2023-03-14T03:51:11;10.40;1.00
1536;DHT22;761;50.074;8.228;2023-03-14T03:53:40;10.40;1.00
1536;DHT22;761;50.074;8.228;2023-03-14T03:56:11;10.50;1.00
1536;DHT22;761;50.074;8.228;2023-03-14T03:58:40;10.40;1.00
1536;DHT22;761;50.074;8.228;2023-03-14T04:01:11;10.40;1.00
1536;DHT22;761;50.074;8.228;2023-03-14T04:03:43;10.30;1.00
1536;DHT22;761;50.074;8.228;2023-03-14T04:06:13;10.40;1.00
1536;DHT22;761;50.074;8.228;2023-03-14T04:08:44;10.40;1.00
1536;DHT22;761;50.074;8.228;2023-03-14T04:11:27;10.40;1.00
1536;DHT22;761;50.074;8.228;2023-03-14T04:16:46;10.30;1.00
1536;DHT22;761;50.074;8.228;2023-03-14T04:19:16;10.30;1.00
1536;DHT22;761;50.074;8.228;2023-03-14T04:21:45;10.30;1.00
1536;DHT22;761;50.074;8.228;2023-03-14T04:24:14;10.30;1.00
1536;DHT22;761;50.074;8.228;2023-03-14T04:26:46;10.30;1.00
1536;DHT22;761;50.074;8.228;2023-03-14T04:29:14;10.30;1.00
1536;DHT22;761;50.074;8.228;2023-03-14T04:31:46;10.30;1.00
1536;DHT22;761;50.074;8.228;2023-03-14T04:34:15;10.30;1.00
1536;DHT22;761;50.074;8.228;2023-03-14T04:36:49;10.40;1.00
1536;DHT22;761;50.074;8.228;2023-03-14T04:39:23;10.50;1.00
1536;DHT22;761;50.074;8.228;2023-03-14T04:41:58;10.50;1.00
1536;DHT22;761;50.074;8.228;2023-03-14T04:44:27;10.60;1.00
1536;DHT22;761;50.074;8.228;2023-03-14T04:47:00;10.50;1.00
1536;DHT22;761;50.074;8.228;2023-03-14T04:49:30;10.50;1.00
1536;DHT22;761;50.074;8.228;2023-03-14T04:51:59;10.40;1.00
1536;DHT22;761;50.074;8.228;2023-03-14T04:54:30;10.30;1.00
1536;DHT22;761;50.074;8.228;2023-03-14T04:56:59;10.30;1.00
1536;DHT22;761;50.074;8.228;2023-03-14T04:59:31;10.30;1.00
1536;DHT22;761;50.074;8.228;2023-03-14T05:02:10;10.30;1.00
1536;DHT22;761;50.074;8.228;2023-03-14T05:04:54;10.30;1.00
1536;DHT22;761;50.074;8.228;2023-03-14T05:07:41;10.40;1.00
1536;DHT22;761;50.074;8.228;2023-03-14T05:10:30;10.30;1.00
1536;DHT22;761;50.074;8.228;2023-03-14T05:13:24;10.30;1.00
1536;DHT22;761;50.074;8.228;2023-03-14T05:18:53;10.20;1.00
1536;DHT22;761;50.074;8.228;2023-03-14T05:21:40;10.20;1.00
1536;DHT22;761;50.074;8.228;2023-03-14T05:24:19;10.30;1.00
1536;DHT22;761;50.074;8.228;2023-03-14T05:26:50;10.30;1.00
1536;DHT22;761;50.074;8.228;2023-03-14T05:29:41;10.30;1.00
1536;DHT22;761;50.074;8.228;2023-03-14T05:32:29;10.30;1.00
1536;DHT22;761;50.074;8.228;2023-03-14T05:35:17;10.30;1.00
1536;DHT22;761;50.074;8.228;2023-03-14T05:38:04;10.30;1.00
1536;DHT22;761;50.074;8.228;2023-03-14T05:40:51;10.20;1.00
1536;DHT22;761;50.074;8.228;2023-03-14T05:43:37;10.20;1.00
1536;DHT22;761;50.074;8.228;2023-03-14T05:46:28;10.20;1.00
1536;DHT22;761;50.074;8.228;2023-03-14T05:49:24;10.20;1.00
1536;DHT22;761;50.074;8.228;2023-03-14T05:52:14;10.20;1.00
1536;DHT22;761;50.074;8.228;2023-03-14T05:55:05;10.20;1.00
1536;DHT22;761;50.074;8.228;2023-03-14T05:57:45;10.20;1.00
1536;DHT22;761;50.074;8.228;2023-03-14T06:00:15;10.10;1.00
1536;DHT22;761;50.074;8.228;2023-03-14T06:02:53;10.10;1.00
1536;DHT22;761;50.074;8.228;2023-03-14T06:05:28;10.10;1.00
1536;DHT22;761;50.074;8.228;2023-03-14T06:08:01;10.10;1.00
1536;DHT22;761;50.074;8.228;2023-03-14T06:10:31;10.10;1.00
1536;DHT22;761;50.074;8.228;2023-03-14T06:12:59;10.10;1.00
1536;DHT22;761;50.074;8.228;2023-03-14T06:15:29;10.10;1.00
1536;DHT22;761;50.074;8.228;2023-03-14T06:18:00;10.10;1.00
1536;DHT22;761;50.074;8.228;2023-03-14T06:20:28;10.10;1.00
1536;DHT22;761;50.074;8.228;2023-03-14T06:22:57;10.00;1.00
1536;DHT22;761;50.074;8.228;2023-03-14T06:25:28;10.00;1.00
1536;DHT22;761;50.074;8.228;2023-03-14T06:27:57;10.00;1.00
1536;DHT22;761;50.074;8.228;2023-03-14T06:30:25;10.00;1.00
1536;DHT22;761;50.074;8.228;2023-03-14T06:32:54;10.10;1.00
1536;DHT22;761;50.074;8.228;2023-03-14T06:35:23;10.10;1.00
1536;DHT22;761;50.074;8.228;2023-03-14T06:37:51;10.20;1.00
1536;DHT22;761;50.074;8.228;2023-03-14T06:40:22;10.10;1.00
1536;DHT22;761;50.074;8.228;2023-03-14T06:42:57;10.10;1.00
1536;DHT22;761;50.074;8.228;2023-03-14T06:45:28;10.10;1.00
1536;DHT22;761;50.074;8.228;2023-03-14T06:47:58;10.10;1.00
1536;DHT22;761;50.074;8.228;2023-03-14T06:50:35;10.10;1.00
1536;DHT22;761;50.074;8.228;2023-03-14T06:53:06;10.10;1.00
1536;DHT22;761;50.074;8.228;2023-03-14T06:55:37;10.20;1.00
1536;DHT22;761;50.074;8.228;2023-03-14T06:58:08;10.10;1.00
1536;DHT22;761;50.074;8.228;2023-03-14T07:00:41;10.10;1.00
1536;DHT22;761;50.074;8.228;2023-03-14T07:03:13;10.10;1.00
1536;DHT22;761;50.074;8.228;2023-03-14T07:05:47;9.90;1.00
1536;DHT22;761;50.074;8.228;2023-03-14T07:08:15;10.10;1.00
1536;DHT22;761;50.074;8.228;2023-03-14T07:13:14;10.20;1.00
1536;DHT22;761;50.074;8.228;2023-03-14T07:15:50;10.20;1.00
1536;DHT22;761;50.074;8.228;2023-03-14T07:18:19;10.20;1.00
1536;DHT22;761;50.074;8.228;2023-03-14T07:20:47;10.20;1.00
1536;DHT22;761;50.074;8.228;2023-03-14T07:25:49;10.30;1.00
1536;DHT22;761;50.074;8.228;2023-03-14T07:28:21;10.30;1.00
1536;DHT22;761;50.074;8.228;2023-03-14T07:30:56;10.20;1.00
1536;DHT22;761;50.074;8.228;2023-03-14T07:33:30;10.30;1.00
1536;DHT22;761;50.074;8.228;2023-03-14T07:38:28;10.20;1.00
1536;DHT22;761;50.074;8.228;2023-03-14T07:41:28;10.20;1.00
1536;DHT22;761;50.074;8.228;2023-03-14T07:44:16;10.10;1.00
1536;DHT22;761;50.074;8.228;2023-03-14T07:46:44;10.20;1.00
1536;DHT22;761;50.074;8.228;2023-03-14T07:49:13;10.30;1.00
1536;DHT22;761;50.074;8.228;2023-03-14T07:51:41;10.30;1.00
1536;DHT22;761;50.074;8.228;2023-03-14T07:54:10;10.30;1.00
1536;DHT22;761;50.074;8.228;2023-03-14T07:56:39;10.40;1.00
1536;DHT22;761;50.074;8.228;2023-03-14T07:59:07;10.30;1.00
1536;DHT22;761;50.074;8.228;2023-03-14T08:04:05;10.30;1.00
1536;DHT22;761;50.074;8.228;2023-03-14T08:06:35;10.40;1.00
1536;DHT22;761;50.074;8.228;2023-03-14T08:09:04;10.40;1.00
1536;DHT22;761;50.074;8.228;2023-03-14T08:11:32;10.40;1.00
1536;DHT22;761;50.074;8.228;2023-03-14T08:14:00;10.40;1.00
1536;DHT22;761;50.074;8.228;2023-03-14T08:16:32;10.40;1.00
1536;DHT22;761;50.074;8.228;2023-03-14T08:19:02;10.40;1.00
1536;DHT22;761;50.074;8.228;2023-03-14T08:21:31;10.40;1.00
1536;DHT22;761;50.074;8.228;2023-03-14T08:23:59;10.40;1.00
1536;DHT22;761;50.074;8.228;2023-03-14T08:26:28;10.50;1.00
1536;DHT22;761;50.074;8.228;2023-03-14T08:28:56;10.60;1.00
1536;DHT22;761;50.074;8.228;2023-03-14T08:31:24;10.60;1.00
1536;DHT22;761;50.074;8.228;2023-03-14T08:33:53;10.60;1.00
1536;DHT22;761;50.074;8.228;2023-03-14T08:36:25;10.60;1.00
1536;DHT22;761;50.074;8.228;2023-03-14T08:38:54;10.70;1.00
1536;DHT22;761;50.074;8.228;2023-03-14T08:41:23;10.70;1.00
1536;DHT22;761;50.074;8.228;2023-03-14T08:46:21;10.80;1.00
1536;DHT22;761;50.074;8.228;2023-03-14T08:53:51;10.40;1.00
1536;DHT22;761;50.074;8.228;2023-03-14T08:56:19;10.70;1.00
1536;DHT22;761;50.074;8.228;2023-03-14T08:58:51;10.70;1.00
1536;DHT22;761;50.074;8.228;2023-03-14T09:01:19;10.60;1.00
1536;DHT22;761;50.074;8.228;2023-03-14T09:03:53;10.50;1.00
1536;DHT22;761;50.074;8.228;2023-03-14T09:06:22;10.80;1.00
1536;DHT22;761;50.074;8.228;2023-03-14T09:08:51;10.60;1.00
1536;DHT22;761;50.074;8.228;2023-03-14T09:11:20;10.40;1.00
1536;DHT22;761;50.074;8.228;2023-03-14T09:18:46;10.50;1.00
1536;DHT22;761;50.074;8.228;2023-03-14T09:21:16;10.50;1.00
1536;DHT22;761;50.074;8.228;2023-03-14T09:23:45;10.60;1.00
1536;DHT22;761;50.074;8.228;2023-03-14T09:26:15;10.60;1.00
1536;DHT22;761;50.074;8.228;2023-03-14T09:28:46;10.60;1.00
1536;DHT22;761;50.074;8.228;2023-03-14T09:31:15;10.70;1.00
1536;DHT22;761;50.074;8.228;2023-03-14T09:33:43;10.80;1.00
1536;DHT22;761;50.074;8.228;2023-03-14T09:36:14;10.80;1.00
1536;DHT22;761;50.074;8.228;2023-03-14T09:41:17;10.80;1.00
1536;DHT22;761;50.074;8.228;2023-03-14T09:43:47;10.80;1.00
1536;DHT22;761;50.074;8.228;2023-03-14T09:46:19;10.80;1.00
1536;DHT22;761;50.074;8.228;2023-03-14T09:51:18;10.80;1.00
1536;DHT22;761;50.074;8.228;2023-03-14T09:53:51;10.90;1.00
1536;DHT22;761;50.074;8.228;2023-03-14T09:56:22;10.80;1.00
1536;DHT22;761;50.074;8.228;2023-03-14T09:58:55;10.80;1.00
1536;DHT22;761;50.074;8.228;2023-03-14T10:01:27;10.90;1.00
1536;DHT22;761;50.074;8.228;2023-03-14T10:04:02;10.90;1.00
1536;DHT22;761;50.074;8.228;2023-03-14T10:06:32;11.00;1.00
1536;DHT22;761;50.074;8.228;2023-03-14T10:09:04;11.10;1.00
1536;DHT22;761;50.074;8.228;2023-03-14T10:11:35;11.00;1.00
1536;DHT22;761;50.074;8.228;2023-03-14T10:14:08;11.00;1.00
1536;DHT22;761;50.074;8.228;2023-03-14T10:16:44;11.10;1.00
1536;DHT22;761;50.074;8.228;2023-03-14T10:19:15;11.00;1.00
1536;DHT22;761;50.074;8.228;2023-03-14T10:21:50;11.00;1.00
1536;DHT22;761;50.074;8.228;2023-03-14T10:24:21;11.00;1.00
1536;DHT22;761;50.074;8.228;2023-03-14T10:26:52;11.00;1.00
1536;DHT22;761;50.074;8.228;2023-03-14T10:29:21;11.10;1.00
1536;DHT22;761;50.074;8.228;2023-03-14T10:31:52;11.10;1.00
1536;DHT22;761;50.074;8.228;2023-03-14T10:34:24;11.20;1.00
1536;DHT22;761;50.074;8.228;2023-03-14T10:36:54;11.20;1.00
1536;DHT22;761;50.074;8.228;2023-03-14T10:39:35;11.30;1.00
1536;DHT22;761;50.074;8.228;2023-03-14T10:42:16;11.30;1.00
1536;DHT22;761;50.074;8.228;2023-03-14T10:44:46;11.20;1.00
1536;DHT22;761;50.074;8.228;2023-03-14T10:47:21;11.10;1.00
1536;DHT22;761;50.074;8.228;2023-03-14T10:49:51;11.10;1.00
1536;DHT22;761;50.074;8.228;2023-03-14T10:52:22;11.00;1.00
1536;DHT22;761;50.074;8.228;2023-03-14T10:55:11;11.10;1.00
1536;DHT22;761;50.074;8.228;2023-03-14T10:57:42;11.00;1.00
1536;DHT22;761;50.074;8.228;2023-03-14T11:00:15;10.90;1.00
1536;DHT22;761;50.074;8.228;2023-03-14T11:02:58;10.90;1.00
1536;DHT22;761;50.074;8.228;2023-03-14T11:05:31;10.90;1.00
1536;DHT22;761;50.074;8.228;2023-03-14T11:08:06;10.90;1.00
1536;DHT22;761;50.074;8.228;2023-03-14T11:10:39;11.00;1.00
1536;DHT22;761;50.074;8.228;2023-03-14T11:13:16;11.10;1.00
1536;DHT22;761;50.074;8.228;2023-03-14T11:15:53;11.20;1.00
1536;DHT22;761;50.074;8.228;2023-03-14T11:18:44;11.20;1.00
1536;DHT22;761;50.074;8.228;2023-03-14T11:21:18;11.30;1.00
1536;DHT22;761;50.074;8.228;2023-03-14T11:23:56;11.30;1.00
1536;DHT22;761;50.074;8.228;2023-03-14T11:26:34;11.40;1.00
1536;DHT22;761;50.074;8.228;2023-03-14T11:29:16;11.40;1.00
1536;DHT22;761;50.074;8.228;2023-03-14T11:31:47;11.30;1.00
1536;DHT22;761;50.074;8.228;2023-03-14T11:34:17;11.40;1.00
1536;DHT22;761;50.074;8.228;2023-03-14T11:36:53;11.30;1.00
1536;DHT22;761;50.074;8.228;2023-03-14T11:39:27;11.30;1.00
1536;DHT22;761;50.074;8.228;2023-03-14T11:41:58;11.20;1.00
1536;DHT22;761;50.074;8.228;2023-03-14T11:44:34;11.20;1.00
1536;DHT22;761;50.074;8.228;2023-03-14T11:47:08;11.30;1.00
1536;DHT22;761;50.074;8.228;2023-03-14T11:49:45;11.30;1.00
1536;DHT22;761;50.074;8.228;2023-03-14T11:52:19;11.30;1.00
1536;DHT22;761;50.074;8.228;2023-03-14T11:54:53;10.30;1.00
1536;DHT22;761;50.074;8.228;2023-03-14T11:57:22;9.80;1.00
1536;DHT22;761;50.074;8.228;2023-03-14T11:59:57;9.60;1.00
1536;DHT22;761;50.074;8.228;2023-03-14T12:02:33;9.40;1.00
1536;DHT22;761;50.074;8.228;2023-03-14T12:05:39;9.50;1.00
1536;DHT22;761;50.074;8.228;2023-03-14T12:08:30;9.70;1.00
1536;DHT22;761;50.074;8.228;2023-03-14T12:11:04;9.90;1.00
1536;DHT22;761;50.074;8.228;2023-03-14T12:13:37;10.10;1.00
1536;DHT22;761;50.074;8.228;2023-03-14T12:16:27;10.20;1.00
1536;DHT22;761;50.074;8.228;2023-03-14T12:18:56;9.80;1.00
1536;DHT22;761;50.074;8.228;2023-03-14T12:21:43;9.80;1.00
1536;DHT22;761;50.074;8.228;2023-03-14T12:24:18;10.10;1.00
1536;DHT22;761;50.074;8.228;2023-03-14T12:26:52;10.30;1.00
1536;DHT22;761;50.074;8.228;2023-03-14T12:29:23;10.40;1.00
1536;DHT22;761;50.074;8.228;2023-03-14T12:34:45;10.00;1.00
1536;DHT22;761;50.074;8.228;2023-03-14T12:37:28;9.80;1.00
1536;DHT22;761;50.074;8.228;2023-03-14T12:40:06;9.90;1.00
1536;DHT22;761;50.074;8.228;2023-03-14T12:42:45;9.90;1.00
1536;DHT22;761;50.074;8.228;2023-03-14T12:45:25;9.90;1.00
1536;DHT22;761;50.074;8.228;2023-03-14T12:48:09;9.70;1.00
1536;DHT22;761;50.074;8.228;2023-03-14T12:50:42;9.50;1.00
1536;DHT22;761;50.074;8.228;2023-03-14T12:56:38;9.60;1.00
1536;DHT22;761;50.074;8.228;2023-03-14T12:59:35;9.60;1.00
1536;DHT22;761;50.074;8.228;2023-03-14T13:02:25;9.60;1.00
1536;DHT22;761;50.074;8.228;2023-03-14T13:05:02;9.50;1.00
1536;DHT22;761;50.074;8.228;2023-03-14T13:08:05;9.60;1.00
1536;DHT22;761;50.074;8.228;2023-03-14T13:10:48;9.60;1.00
1536;DHT22;761;50.074;8.228;2023-03-14T13:13:21;9.70;1.00
1536;DHT22;761;50.074;8.228;2023-03-14T13:15:54;9.70;1.00
1536;DHT22;761;50.074;8.228;2023-03-14T13:18:29;10.20;1.00
1536;DHT22;761;50.074;8.228;2023-03-14T13:21:03;9.90;1.00
1536;DHT22;761;50.074;8.228;2023-03-14T13:23:36;10.20;1.00
1536;DHT22;761;50.074;8.228;2023-03-14T13:26:11;10.20;1.00
1536;DHT22;761;50.074;8.228;2023-03-14T13:28:42;10.10;1.00
1536;DHT22;761;50.074;8.228;2023-03-14T13:31:24;10.40;1.00
1536;DHT22;761;50.074;8.228;2023-03-14T13:34:06;10.60;1.00
1536;DHT22;761;50.074;8.228;2023-03-14T13:36:35;10.60;1.00
1536;DHT22;761;50.074;8.228;2023-03-14T13:39:10;10.50;1.00
1536;DHT22;761;50.074;8.228;2023-03-14T13:41:41;10.50;1.00
1536;DHT22;761;50.074;8.228;2023-03-14T13:44:15;10.20;1.00
1536;DHT22;761;50.074;8.228;2023-03-14T13:46:44;10.20;1.00
1536;DHT22;761;50.074;8.228;2023-03-14T13:49:23;10.00;1.00
1536;DHT22;761;50.074;8.228;2023-03-14T13:51:56;10.00;1.00
1536;DHT22;761;50.074;8.228;2023-03-14T13:54:26;9.70;1.00
1536;DHT22;761;50.074;8.228;2023-03-14T13:56:59;9.50;1.00
1536;DHT22;761;50.074;8.228;2023-03-14T13:59:30;9.60;1.00
1536;DHT22;761;50.074;8.228;2023-03-14T14:02:01;9.60;1.00
1536;DHT22;761;50.074;8.228;2023-03-14T14:04:35;9.40;1.00
1536;DHT22;761;50.074;8.228;2023-03-14T14:07:07;9.20;1.00
1536;DHT22;761;50.074;8.228;2023-03-14T14:09:39;9.10;1.00
1536;DHT22;761;50.074;8.228;2023-03-14T14:12:14;9.10;1.00
1536;DHT22;761;50.074;8.228;2023-03-14T14:14:47;9.00;1.00
1536;DHT22;761;50.074;8.228;2023-03-14T14:17:20;8.90;1.00
1536;DHT22;761;50.074;8.228;2023-03-14T14:19:50;8.80;1.00
1536;DHT22;761;50.074;8.228;2023-03-14T14:22:21;8.70;1.00
1536;DHT22;761;50.074;8.228;2023-03-14T14:24:51;8.80;1.00
1536;DHT22;761;50.074;8.228;2023-03-14T14:27:24;9.20;1.00
1536;DHT22;761;50.074;8.228;2023-03-14T14:30:01;9.00;1.00
1536;DHT22;761;50.074;8.228;2023-03-14T14:32:35;8.80;1.00
1536;DHT22;761;50.074;8.228;2023-03-14T14:35:05;7.10;1.00
1536;DHT22;761;50.074;8.228;2023-03-14T14:37:41;6.70;1.00
1536;DHT22;761;50.074;8.228;2023-03-14T14:40:17;6.50;1.00
1536;DHT22;761;50.074;8.228;2023-03-14T14:42:48;6.60;1.00
1536;DHT22;761;50.074;8.228;2023-03-14T14:45:19;6.50;1.00
1536;DHT22;761;50.074;8.228;2023-03-14T14:50:28;6.60;1.00
1536;DHT22;761;50.074;8.228;2023-03-14T14:52:57;6.60;1.00
1536;DHT22;761;50.074;8.228;2023-03-14T14:55:32;6.60;1.00
1536;DHT22;761;50.074;8.228;2023-03-14T14:58:16;6.60;1.00
1536;DHT22;761;50.074;8.228;2023-03-14T15:00:54;6.80;1.00
1536;DHT22;761;50.074;8.228;2023-03-14T15:03:28;6.90;1.00
1536;DHT22;761;50.074;8.228;2023-03-14T15:05:58;6.70;1.00
1536;DHT22;761;50.074;8.228;2023-03-14T15:08:27;6.70;1.00
1536;DHT22;761;50.074;8.228;2023-03-14T15:10:58;6.20;1.00
1536;DHT22;761;50.074;8.228;2023-03-14T15:13:27;6.20;1.00
1536;DHT22;761;50.074;8.228;2023-03-14T15:15:56;6.10;1.00
1536;DHT22;761;50.074;8.228;2023-03-14T15:18:27;6.10;1.00
1536;DHT22;761;50.074;8.228;2023-03-14T15:20:57;6.20;1.00
1536;DHT22;761;50.074;8.228;2023-03-14T15:25:54;6.20;1.00
1536;DHT22;761;50.074;8.228;2023-03-14T15:28:28;6.20;1.00
1536;DHT22;761;50.074;8.228;2023-03-14T15:30:58;6.30;1.00
1536;DHT22;761;50.074;8.228;2023-03-14T15:33:27;6.30;1.00
1536;DHT22;761;50.074;8.228;2023-03-14T15:35:56;6.40;1.00
1536;DHT22;761;50.074;8.228;2023-03-14T15:38:28;6.20;1.00
1536;DHT22;761;50.074;8.228;2023-03-14T15:40:56;6.30;1.00
1536;DHT22;761;50.074;8.228;2023-03-14T15:43:26;6.30;1.00
1536;DHT22;761;50.074;8.228;2023-03-14T15:45:55;6.30;1.00
1536;DHT22;761;50.074;8.228;2023-03-14T15:48:24;6.30;1.00
1536;DHT22;761;50.074;8.228;2023-03-14T15:50:52;6.40;1.00
1536;DHT22;761;50.074;8.228;2023-03-14T15:53:21;6.30;1.00
1536;DHT22;761;50.074;8.228;2023-03-14T15:55:49;6.10;1.00
1536;DHT22;761;50.074;8.228;2023-03-14T15:58:20;6.10;1.00
1536;DHT22;761;50.074;8.228;2023-03-14T16:00:53;5.90;1.00
1536;DHT22;761;50.074;8.228;2023-03-14T16:03:21;5.90;1.00
1536;DHT22;761;50.074;8.228;2023-03-14T16:05:49;6.00;1.00
1536;DHT22;761;50.074;8.228;2023-03-14T16:08:18;6.00;1.00
1536;DHT22;761;50.074;8.228;2023-03-14T16:10:46;5.90;1.00
1536;DHT22;761;50.074;8.228;2023-03-14T16:13:16;5.90;1.00
1536;DHT22;761;50.074;8.228;2023-03-14T16:15:54;5.90;1.00
1536;DHT22;761;50.074;8.228;2023-03-14T16:18:23;5.90;1.00
1536;DHT22;761;50.074;8.228;2023-03-14T16:20:53;6.00;1.00
1536;DHT22;761;50.074;8.228;2023-03-14T16:23:23;6.00;1.00
1536;DHT22;761;50.074;8.228;2023-03-14T16:25:52;6.10;1.00
1536;DHT22;761;50.074;8.228;2023-03-14T16:28:21;6.00;1.00
1536;DHT22;761;50.074;8.228;2023-03-14T16:30:49;5.90;1.00
1536;DHT22;761;50.074;8.228;2023-03-14T16:33:19;5.90;1.00
1536;DHT22;761;50.074;8.228;2023-03-14T16:35:54;6.00;1.00
1536;DHT22;761;50.074;8.228;2023-03-14T16:38:23;6.00;1.00
1536;DHT22;761;50.074;8.228;2023-03-14T16:40:59;5.90;1.00
1536;DHT22;761;50.074;8.228;2023-03-14T16:43:28;6.00;1.00
1536;DHT22;761;50.074;8.228;2023-03-14T16:45:57;6.00;1.00
1536;DHT22;761;50.074;8.228;2023-03-14T16:48:28;5.80;1.00
1536;DHT22;761;50.074;8.228;2023-03-14T16:50:56;5.70;1.00
1536;DHT22;761;50.074;8.228;2023-03-14T16:53:25;5.70;1.00
1536;DHT22;761;50.074;8.228;2023-03-14T16:55:57;5.60;1.00
1536;DHT22;761;50.074;8.228;2023-03-14T16:58:26;5.60;1.00
1536;DHT22;761;50.074;8.228;2023-03-14T17:00:56;5.70;1.00
1536;DHT22;761;50.074;8.228;2023-03-14T17:03:24;5.60;1.00
1536;DHT22;761;50.074;8.228;2023-03-14T17:05:55;5.60;1.00
1536;DHT22;761;50.074;8.228;2023-03-14T17:08:23;5.70;1.00
1536;DHT22;761;50.074;8.228;2023-03-14T17:10:52;5.60;1.00
1536;DHT22;761;50.074;8.228;2023-03-14T17:13:22;5.70;1.00
1536;DHT22;761;50.074;8.228;2023-03-14T17:15:52;5.80;1.00
